Terminal Aerodrome Forecast
Issued by NWS

Home | Current Version | Previous Version | Text Only | Print | Product List | Glossary On
Versions: 1 2 3 4 5 6 7 8 9 10 11 12 13 14 15 16 17
000
FTUS42 KTBW 200533
TAFRSW
TAF
KRSW 200533Z 2006/2106 02004KT 6SM BR SKC
     FM200800 03004KT 3SM BR FEW005
     FM201400 07007KT P6SM FEW015
     FM202200 09006KT P6SM SCT045
     FM210300 09004KT P6SM SCT045=

USA.gov is the U.S. government's official web portal to all federal, state and local government web resources and services.